createdAt,value
2019-04-22T00:01:57.864Z,15.18
2019-04-22T00:04:34.864Z,14.70
2019-04-22T00:07:15.938Z,8.50
2019-04-22T00:09:52.966Z,10.68
2019-04-22T00:12:22.338Z,7.97
2019-04-22T00:14:40.592Z,14.73
2019-04-22T00:17:25.125Z,14.65
2019-04-22T00:19:53.748Z,15.10
2019-04-22T00:22:22.315Z,16.42
2019-04-22T00:24:51.263Z,10.60
2019-04-22T00:29:59.656Z,14.33
2019-04-22T00:32:25.672Z,7.95
2019-04-22T00:35:02.439Z,19.02
2019-04-22T00:37:30.123Z,6.60
2019-04-22T00:39:57.427Z,6.10
2019-04-22T00:42:36.087Z,6.78
2019-04-22T00:45:09.721Z,18.52
2019-04-22T00:47:32.437Z,10.05
2019-04-22T00:50:12.720Z,5.58
2019-04-22T00:52:33.928Z,6.87
2019-04-22T00:55:10.171Z,5.25
2019-04-22T00:57:36.915Z,13.80
2019-04-22T01:00:05.513Z,11.10
2019-04-22T01:02:34.630Z,5.35
2019-04-22T01:05:07.726Z,5.95
2019-04-22T01:07:30.481Z,6.00
2019-04-22T01:10:09.927Z,7.00
2019-04-22T01:12:34.627Z,9.45
2019-04-22T01:15:08.762Z,9.00
2019-04-22T01:17:40.164Z,8.38
2019-04-22T01:20:27.214Z,6.90
2019-04-22T01:22:34.648Z,9.45
2019-04-22T01:25:08.855Z,6.80
2019-04-22T01:27:34.881Z,7.72
2019-04-22T01:30:03.681Z,6.92
2019-04-22T01:32:30.356Z,8.00
2019-04-22T01:35:05.904Z,6.28
2019-04-22T01:37:40.461Z,7.70
2019-04-22T01:40:21.426Z,7.67
2019-04-22T01:42:58.819Z,8.03
2019-04-22T01:45:22.622Z,8.18
2019-04-22T01:47:46.674Z,6.60
2019-04-22T01:50:21.390Z,6.20
2019-04-22T01:52:53.255Z,7.03
2019-04-22T01:55:24.894Z,6.17
2019-04-22T01:57:47.734Z,6.67
2019-04-22T02:00:14.098Z,7.55
2019-04-22T02:02:48.721Z,7.20
2019-04-22T02:07:48.227Z,7.95
2019-04-22T02:10:32.290Z,8.20
2019-04-22T02:12:54.044Z,6.42
2019-04-22T02:15:23.774Z,8.03
2019-04-22T02:17:54.752Z,6.35
2019-04-22T02:20:28.185Z,7.37
2019-04-22T02:23:40.280Z,7.87
2019-04-22T02:25:55.979Z,7.67
2019-04-22T02:28:26.108Z,6.30
2019-04-22T02:31:16.908Z,6.65
2019-04-22T02:36:15.023Z,9.08
2019-04-22T02:38:44.241Z,6.28
2019-04-22T02:43:46.543Z,6.47
2019-04-22T02:46:13.271Z,7.37
2019-04-22T02:48:48.706Z,8.85
2019-04-22T02:51:02.157Z,6.67
2019-04-22T02:54:00.504Z,8.45
2019-04-22T02:58:45.009Z,7.20
2019-04-22T03:01:05.988Z,7.20
2019-04-22T03:03:45.850Z,7.65
2019-04-22T03:06:15.953Z,7.05
2019-04-22T03:08:30.137Z,7.95
2019-04-22T03:11:07.374Z,7.72
2019-04-22T03:13:37.789Z,7.80
2019-04-22T03:16:08.344Z,7.90
2019-04-22T03:18:42.106Z,6.08
2019-04-22T03:21:02.180Z,6.83
2019-04-22T03:24:04.069Z,6.83
2019-04-22T03:26:12.310Z,7.37
2019-04-22T03:28:37.276Z,7.33
2019-04-22T03:31:36.921Z,7.78
2019-04-22T03:34:15.291Z,7.20
2019-04-22T03:36:57.328Z,7.08
2019-04-22T03:39:10.882Z,7.85
2019-04-22T03:41:38.963Z,7.40
2019-04-22T03:46:22.193Z,7.85
2019-04-22T03:49:07.215Z,9.98
2019-04-22T03:51:38.913Z,9.85
2019-04-22T03:54:03.431Z,7.85
2019-04-22T03:56:57.248Z,7.90
2019-04-22T03:58:58.581Z,7.20
2019-04-22T04:01:30.517Z,7.60
2019-04-22T04:04:01.043Z,7.12
2019-04-22T04:06:34.670Z,7.40
2019-04-22T04:11:38.991Z,7.65
2019-04-22T04:14:05.340Z,12.70
2019-04-22T04:16:30.670Z,9.40
2019-04-22T04:19:07.733Z,7.33
2019-04-22T04:21:37.625Z,10.68
2019-04-22T04:26:45.550Z,8.55
2019-04-22T04:29:05.769Z,7.78
2019-04-22T04:36:35.550Z,7.45
2019-04-22T04:39:00.574Z,7.50
2019-04-22T04:41:33.730Z,7.67
2019-04-22T04:49:19.137Z,7.85
2019-04-22T04:51:33.007Z,7.58
2019-04-22T05:04:05.056Z,8.10
2019-04-22T05:06:42.989Z,8.15
2019-04-22T05:11:51.976Z,8.30
2019-04-22T05:14:10.848Z,9.10
2019-04-22T05:19:12.858Z,8.88
2019-04-22T05:21:48.125Z,7.75
2019-04-22T05:24:02.674Z,8.00
2019-04-22T05:26:32.824Z,7.67
2019-04-22T05:29:04.069Z,7.92
2019-04-22T05:31:35.209Z,7.28
2019-04-22T05:34:05.503Z,8.25
2019-04-22T05:36:28.317Z,7.97
2019-04-22T05:39:01.813Z,8.40
2019-04-22T05:41:30.532Z,11.33
2019-04-22T05:44:06.328Z,8.33
2019-04-22T05:46:29.911Z,8.35
2019-04-22T05:49:04.369Z,8.28
2019-04-22T05:51:31.429Z,8.00
2019-04-22T05:54:01.545Z,8.10
2019-04-22T05:56:37.112Z,7.83
2019-04-22T05:59:04.605Z,8.98
2019-04-22T06:04:05.483Z,7.95
2019-04-22T06:06:32.251Z,8.90
2019-04-22T06:09:10.470Z,8.58
2019-04-22T06:11:44.804Z,8.40
2019-04-22T06:14:07.631Z,8.88
2019-04-22T06:16:45.792Z,8.18
2019-04-22T06:19:14.301Z,9.48
2019-04-22T06:21:46.225Z,7.97
2019-04-22T06:24:16.753Z,7.80
2019-04-22T06:26:53.982Z,8.38
2019-04-22T06:29:16.577Z,7.75
2019-04-22T06:32:03.328Z,7.47
2019-04-22T06:34:17.456Z,7.92
2019-04-22T06:39:26.231Z,7.47
2019-04-22T06:41:47.765Z,7.83
2019-04-22T06:44:18.681Z,7.30
2019-04-22T06:46:49.222Z,7.20
2019-04-22T06:49:17.368Z,8.13
2019-04-22T06:51:46.828Z,6.90
2019-04-22T06:54:14.145Z,7.47
2019-04-22T06:56:49.217Z,7.55
2019-04-22T06:59:18.421Z,8.08
2019-04-22T07:01:52.589Z,7.37
2019-04-22T07:04:16.612Z,7.25
2019-04-22T07:06:49.916Z,7.30
2019-04-22T07:09:28.803Z,7.35
2019-04-22T07:11:42.948Z,7.78
2019-04-22T07:14:30.244Z,6.92
2019-04-22T07:16:51.257Z,7.20
2019-04-22T07:19:20.644Z,7.50
2019-04-22T07:21:50.598Z,6.78
2019-04-22T07:24:35.707Z,7.65
2019-04-22T07:26:52.720Z,7.37
2019-04-22T07:29:19.074Z,7.03
2019-04-22T07:31:58.249Z,7.03
2019-04-22T07:39:23.172Z,7.30
2019-04-22T07:41:51.398Z,7.42
2019-04-22T07:46:56.554Z,6.83
2019-04-22T07:49:26.595Z,7.58
2019-04-22T07:51:50.094Z,7.42
2019-04-22T07:54:24.335Z,7.22
2019-04-22T07:57:01.162Z,6.85
2019-04-22T07:59:22.485Z,6.83
2019-04-22T08:01:53.776Z,6.53
2019-04-22T08:04:44.882Z,6.62
2019-04-22T08:06:57.523Z,6.65
2019-04-22T08:09:27.646Z,7.10
2019-04-22T08:11:53.770Z,7.58
2019-04-22T08:14:29.768Z,7.00
2019-04-22T08:17:02.867Z,7.03
2019-04-22T08:19:33.454Z,6.83
2019-04-22T08:21:57.060Z,7.42
2019-04-22T08:24:32.277Z,6.95
2019-04-22T08:26:58.270Z,6.80
2019-04-22T08:34:27.531Z,6.85
2019-04-22T08:37:25.779Z,7.55
2019-04-22T08:39:32.581Z,7.25
2019-04-22T08:41:51.469Z,7.60
2019-04-22T08:47:04.719Z,7.25
2019-04-22T08:49:39.462Z,6.85
2019-04-22T08:52:01.021Z,7.70
2019-04-22T08:54:31.107Z,9.48
2019-04-22T08:57:01.835Z,7.72
2019-04-22T08:59:28.261Z,6.90
2019-04-22T09:02:09.914Z,8.00
2019-04-22T09:04:31.193Z,8.45
2019-04-22T09:09:33.962Z,8.48
2019-04-22T09:14:38.834Z,7.62
2019-04-22T09:17:05.723Z,7.55
2019-04-22T09:19:39.029Z,7.33
2019-04-22T09:22:04.719Z,7.78
2019-04-22T09:24:35.673Z,8.20
2019-04-22T09:27:13.128Z,11.50
2019-04-22T09:29:41.239Z,7.87
2019-04-22T09:37:13.847Z,8.20
2019-04-22T09:39:46.115Z,8.75
2019-04-22T09:42:04.998Z,10.25
2019-04-22T09:44:40.396Z,9.90
2019-04-22T09:47:07.327Z,8.33
2019-04-22T09:49:44.563Z,10.38
2019-04-22T09:52:11.596Z,8.20
2019-04-22T09:54:51.061Z,9.10
2019-04-22T09:57:09.315Z,7.97
2019-04-22T09:59:43.355Z,9.38
2019-04-22T10:04:44.911Z,8.13
2019-04-22T10:07:15.313Z,8.45
2019-04-22T10:12:10.403Z,9.03
2019-04-22T10:14:45.737Z,9.95
2019-04-22T10:17:06.627Z,15.80
2019-04-22T10:19:40.912Z,9.35
2019-04-22T10:24:38.831Z,9.63
2019-04-22T10:27:07.226Z,9.03
2019-04-22T10:29:48.575Z,9.35
2019-04-22T10:32:13.974Z,9.50
2019-04-22T10:34:28.825Z,9.10
2019-04-22T10:36:54.412Z,9.68
2019-04-22T10:39:20.222Z,9.40
2019-04-22T10:41:50.608Z,9.58
2019-04-22T10:44:19.326Z,9.08
2019-04-22T10:46:48.311Z,9.65
2019-04-22T10:49:18.324Z,9.55
2019-04-22T10:51:46.861Z,9.83
2019-04-22T10:54:15.770Z,8.58
2019-04-22T10:56:45.243Z,8.33
2019-04-22T10:59:14.377Z,8.98
2019-04-22T11:01:44.355Z,9.38
2019-04-22T11:04:13.334Z,9.43
2019-04-22T11:06:50.862Z,9.95
2019-04-22T11:09:12.514Z,8.90
2019-04-22T11:11:48.927Z,9.28
2019-04-22T11:14:12.857Z,9.10
2019-04-22T11:16:41.705Z,8.08
2019-04-22T11:19:11.780Z,8.68
2019-04-22T11:21:41.352Z,9.05
2019-04-22T11:24:10.587Z,9.53
2019-04-22T11:26:40.955Z,8.98
2019-04-22T11:29:10.059Z,9.23
2019-04-22T11:31:38.990Z,8.73
2019-04-22T11:34:08.899Z,9.18
2019-04-22T11:36:38.923Z,8.73
2019-04-22T11:39:10.870Z,8.98
2019-04-22T11:41:40.109Z,8.70
2019-04-22T11:44:09.544Z,8.65
2019-04-22T11:49:08.030Z,12.23
2019-04-22T11:51:37.982Z,9.20
2019-04-22T11:54:07.266Z,8.60
2019-04-22T11:56:36.911Z,8.95
2019-04-22T11:59:06.744Z,9.08
2019-04-22T12:01:37.022Z,8.35
2019-04-22T12:04:07.540Z,8.45
2019-04-22T12:06:37.763Z,11.30
2019-04-22T12:09:11.963Z,8.75
2019-04-22T12:11:41.033Z,9.40
2019-04-22T12:14:09.889Z,8.95
2019-04-22T12:16:39.362Z,8.70
2019-04-22T12:19:09.209Z,9.18
2019-04-22T12:21:39.217Z,8.78
2019-04-22T12:24:09.098Z,8.78
2019-04-22T12:26:38.059Z,10.20
2019-04-22T12:29:07.187Z,8.73
2019-04-22T12:31:35.858Z,9.45
2019-04-22T12:34:06.145Z,8.73
2019-04-22T12:36:36.277Z,8.53
2019-04-22T12:39:09.799Z,8.70
2019-04-22T12:41:40.059Z,9.00
2019-04-22T12:44:09.359Z,8.28
2019-04-22T12:49:07.999Z,8.65
2019-04-22T12:51:36.911Z,8.70
2019-04-22T12:54:06.844Z,8.50
2019-04-22T12:56:35.681Z,8.80
2019-04-22T12:59:05.659Z,8.83
2019-04-22T13:01:35.107Z,8.60
2019-04-22T13:06:33.384Z,8.73
2019-04-22T13:09:02.241Z,9.60
2019-04-22T13:11:34.820Z,9.43
2019-04-22T13:14:01.225Z,8.83
2019-04-22T13:16:31.090Z,8.68
2019-04-22T13:19:05.100Z,8.58
2019-04-22T13:21:31.142Z,8.15
2019-04-22T13:23:59.849Z,8.53
2019-04-22T13:26:29.744Z,9.30
2019-04-22T13:28:59.040Z,9.25
2019-04-22T13:31:28.901Z,9.13
2019-04-22T13:34:00.205Z,8.53
2019-04-22T13:36:29.649Z,8.65
2019-04-22T13:38:58.706Z,9.13
2019-04-22T13:41:36.893Z,8.90
2019-04-22T13:43:58.156Z,9.43
2019-04-22T13:46:31.267Z,8.15
2019-04-22T13:49:33.041Z,9.60
2019-04-22T13:52:00.975Z,8.98
2019-04-22T13:54:48.690Z,8.90
2019-04-22T13:56:51.909Z,8.28
2019-04-22T13:59:17.654Z,9.00
2019-04-22T14:01:52.644Z,9.55
2019-04-22T14:04:25.783Z,8.58
2019-04-22T14:06:54.696Z,8.70
2019-04-22T14:09:24.474Z,9.03
2019-04-22T14:11:58.513Z,8.58
2019-04-22T14:14:24.014Z,8.80
2019-04-22T14:21:51.223Z,8.65
2019-04-22T14:24:21.506Z,9.48
2019-04-22T14:27:00.772Z,8.90
2019-04-22T14:29:21.907Z,9.88
2019-04-22T14:32:02.855Z,9.80
2019-04-22T14:34:20.922Z,9.30
2019-04-22T14:36:50.706Z,8.83
2019-04-22T14:39:19.932Z,9.58
2019-04-22T14:42:08.318Z,8.28
2019-04-22T14:47:15.866Z,8.55
2019-04-22T14:49:42.112Z,9.20
2019-04-22T14:52:19.361Z,9.18
2019-04-22T14:54:34.861Z,8.30
2019-04-22T14:56:50.301Z,9.28
2019-04-22T14:59:19.008Z,8.83
2019-04-22T15:01:47.682Z,8.83
2019-04-22T15:04:17.226Z,8.63
2019-04-22T15:06:48.258Z,9.10
2019-04-22T15:09:16.399Z,8.60
2019-04-22T15:11:56.869Z,8.75
2019-04-22T15:14:15.341Z,8.75
2019-04-22T15:17:02.643Z,8.38
2019-04-22T15:19:35.868Z,8.48
2019-04-22T15:22:05.055Z,8.63
2019-04-22T15:24:34.606Z,8.78
2019-04-22T15:27:04.738Z,8.70
2019-04-22T15:29:33.679Z,9.05
2019-04-22T15:32:03.187Z,9.25
2019-04-22T15:34:32.678Z,8.53
2019-04-22T15:39:31.454Z,8.48
2019-04-22T15:42:11.344Z,9.08
2019-04-22T15:44:30.629Z,9.10
2019-04-22T15:47:00.707Z,8.68
2019-04-22T15:49:29.821Z,8.65
2019-04-22T15:52:00.693Z,8.43
2019-04-22T15:54:29.812Z,8.20
2019-04-22T15:56:59.015Z,8.48
2019-04-22T15:59:46.543Z,7.90
2019-04-22T16:02:00.352Z,8.80
2019-04-22T16:04:28.606Z,8.73
2019-04-22T16:06:57.160Z,8.38
2019-04-22T16:09:26.923Z,9.55
2019-04-22T16:12:00.441Z,9.93
2019-04-22T16:14:32.894Z,9.00
2019-04-22T16:16:56.725Z,9.43
2019-04-22T16:19:25.515Z,8.63
2019-04-22T16:21:59.291Z,8.68
2019-04-22T16:24:31.984Z,9.25
2019-04-22T16:27:02.486Z,8.40
2019-04-22T16:29:31.556Z,8.28
2019-04-22T16:32:01.229Z,9.20
2019-04-22T16:34:31.269Z,8.93
2019-04-22T16:37:00.840Z,9.65
2019-04-22T16:39:30.964Z,8.88
2019-04-22T16:42:00.653Z,9.45
2019-04-22T16:44:30.378Z,9.13
2019-04-22T16:46:59.554Z,9.10
2019-04-22T16:49:29.688Z,10.28
2019-04-22T16:52:00.216Z,9.58
2019-04-22T16:54:28.979Z,10.00
2019-04-22T16:56:57.709Z,11.85
2019-04-22T16:59:26.742Z,9.10
2019-04-22T17:02:14.746Z,9.85
2019-04-22T17:04:46.594Z,8.35
2019-04-22T17:07:16.121Z,7.80
2019-04-22T17:09:45.830Z,9.28
2019-04-22T17:12:16.033Z,8.90
2019-04-22T17:14:52.673Z,10.05
2019-04-22T17:17:15.476Z,10.45
2019-04-22T17:19:45.171Z,9.65
2019-04-22T17:22:15.471Z,8.18
2019-04-22T17:24:45.713Z,9.35
2019-04-22T17:27:14.877Z,9.05
2019-04-22T17:29:44.249Z,12.85
2019-04-22T17:32:16.909Z,12.80
2019-04-22T17:34:43.562Z,14.85
2019-04-22T17:37:19.340Z,15.05
2019-04-22T17:39:53.138Z,15.38
2019-04-22T17:42:33.811Z,16.93
2019-04-22T17:45:23.803Z,20.37
2019-04-22T17:47:45.189Z,13.65
2019-04-22T17:50:19.942Z,14.07
2019-04-22T17:52:59.548Z,9.85
2019-04-22T17:55:19.482Z,8.83
2019-04-22T17:57:49.114Z,8.60
2019-04-22T18:00:18.893Z,8.03
2019-04-22T18:02:45.602Z,9.53
2019-04-22T18:05:04.216Z,15.48
2019-04-22T18:08:10.090Z,10.88
2019-04-22T18:10:36.169Z,10.50
2019-04-22T18:13:01.818Z,9.90
2019-04-22T18:15:24.102Z,20.23
2019-04-22T18:18:12.494Z,9.88
2019-04-22T18:20:17.700Z,10.43
2019-04-22T18:22:49.361Z,10.90
2019-04-22T18:25:17.123Z,11.10
2019-04-22T18:28:00.687Z,14.68
2019-04-22T18:30:20.136Z,11.35
2019-04-22T18:32:55.613Z,11.70
2019-04-22T18:35:26.542Z,13.25
2019-04-22T18:38:03.326Z,14.18
2019-04-22T18:40:30.797Z,15.00
2019-04-22T18:43:03.664Z,16.48
2019-04-22T18:45:39.720Z,14.75
2019-04-22T18:47:56.285Z,13.50
2019-04-22T18:50:45.381Z,12.13
2019-04-22T18:53:25.341Z,12.65
2019-04-22T18:55:44.402Z,12.07
2019-04-22T18:58:18.036Z,12.60
2019-04-22T19:00:41.890Z,14.55
2019-04-22T19:03:16.504Z,14.68
2019-04-22T19:06:09.509Z,16.55
2019-04-22T19:08:31.558Z,22.85
2019-04-22T19:16:22.514Z,19.85
2019-04-22T19:21:19.362Z,20.55
2019-04-22T19:23:38.459Z,23.40
2019-04-22T19:26:13.808Z,24.00
2019-04-22T19:28:42.313Z,21.00
2019-04-22T19:31:15.389Z,22.45
2019-04-22T19:33:40.146Z,17.20
2019-04-22T19:36:11.385Z,16.57
2019-04-22T19:38:28.696Z,15.30
2019-04-22T19:41:15.048Z,16.25
2019-04-22T19:43:38.961Z,16.52
2019-04-22T19:46:07.482Z,18.42
2019-04-22T19:48:44.982Z,18.30
2019-04-22T19:51:15.770Z,20.75
2019-04-22T19:53:42.269Z,23.00
2019-04-22T19:56:07.198Z,20.23
2019-04-22T19:58:38.448Z,17.62
2019-04-22T20:01:22.199Z,16.37
2019-04-22T20:04:07.959Z,15.25
2019-04-22T20:06:35.350Z,17.17
2019-04-22T20:09:05.743Z,15.63
2019-04-22T20:11:35.238Z,17.17
2019-04-22T20:14:06.385Z,15.58
2019-04-22T20:16:32.559Z,14.58
2019-04-22T20:19:12.220Z,15.63
2019-04-22T20:21:35.365Z,18.60
2019-04-22T20:23:57.371Z,18.87
2019-04-22T20:26:44.830Z,18.07
2019-04-22T20:29:11.426Z,16.82
2019-04-22T20:31:39.132Z,15.85
2019-04-22T20:34:16.222Z,15.10
2019-04-22T20:39:04.940Z,17.45
2019-04-22T20:41:34.250Z,15.40
2019-04-22T20:44:11.301Z,15.20
2019-04-22T20:46:36.260Z,16.42
2019-04-22T20:49:12.213Z,17.42
2019-04-22T20:51:50.295Z,18.90
2019-04-22T20:54:12.105Z,18.82
2019-04-22T20:56:42.091Z,17.62
2019-04-22T20:59:11.213Z,19.17
2019-04-22T21:01:38.813Z,19.90
2019-04-22T21:03:57.412Z,17.65
2019-04-22T21:06:36.808Z,20.45
2019-04-22T21:09:15.519Z,19.25
2019-04-22T21:11:38.664Z,21.45
2019-04-22T21:14:06.390Z,18.17
2019-04-22T21:16:47.278Z,19.37
2019-04-22T21:19:22.044Z,17.00
2019-04-22T21:21:45.020Z,20.43
2019-04-22T21:24:13.981Z,19.92
2019-04-22T21:26:41.220Z,20.55
2019-04-22T21:29:12.647Z,20.37
2019-04-22T21:31:50.257Z,20.50
2019-04-22T21:34:10.291Z,20.48
2019-04-22T21:36:50.676Z,21.40
2019-04-22T21:39:12.010Z,22.48
2019-04-22T21:41:47.169Z,22.45
2019-04-22T21:44:14.059Z,20.77
2019-04-22T21:46:51.057Z,20.40
2019-04-22T21:49:21.703Z,21.15
2019-04-22T21:51:49.339Z,22.75
2019-04-22T21:54:21.505Z,21.68
2019-04-22T21:57:01.835Z,19.42
2019-04-22T21:59:19.239Z,19.90
2019-04-22T22:01:56.851Z,21.95
2019-04-22T22:04:22.008Z,21.25
2019-04-22T22:06:42.454Z,22.02
2019-04-22T22:09:25.372Z,22.10
2019-04-22T22:11:49.518Z,22.48
2019-04-22T22:14:24.767Z,21.30
2019-04-22T22:16:47.229Z,21.27
2019-04-22T22:19:25.473Z,20.60
2019-04-22T22:22:02.414Z,22.77
2019-04-22T22:24:27.237Z,24.57
2019-04-22T22:26:55.825Z,24.30
2019-04-22T22:29:40.247Z,24.20
2019-04-22T22:32:02.685Z,26.33
2019-04-22T22:34:43.639Z,28.00
2019-04-22T22:36:50.598Z,26.02
2019-04-22T22:39:24.845Z,27.95
2019-04-22T22:41:41.663Z,35.98
2019-04-22T22:44:18.251Z,28.77
2019-04-22T22:46:59.037Z,31.60
2019-04-22T22:49:33.355Z,31.35
2019-04-22T22:52:26.135Z,30.32
2019-04-22T22:54:37.454Z,33.73
2019-04-22T22:57:09.056Z,34.05
2019-04-22T22:59:36.189Z,36.15
2019-04-22T23:02:04.954Z,35.17
2019-04-22T23:04:39.382Z,36.08
2019-04-22T23:07:11.448Z,36.10
2019-04-22T23:09:38.467Z,33.30
2019-04-22T23:14:37.193Z,30.62
2019-04-22T23:16:52.971Z,34.33
2019-04-22T23:19:15.727Z,32.30
2019-04-22T23:21:49.463Z,31.23
2019-04-22T23:24:43.981Z,29.30
2019-04-22T23:27:22.818Z,29.87
2019-04-22T23:29:53.197Z,32.13
2019-04-22T23:32:26.879Z,33.00
2019-04-22T23:35:16.695Z,34.05
2019-04-22T23:37:54.359Z,30.82
2019-04-22T23:40:29.680Z,32.00
2019-04-22T23:43:00.192Z,32.55
2019-04-22T23:45:30.996Z,33.18
2019-04-22T23:47:46.419Z,31.48
2019-04-22T23:50:29.435Z,32.93
2019-04-22T23:53:00.594Z,33.63
2019-04-22T23:55:33.828Z,34.92
2019-04-22T23:58:11.103Z,33.48
